Time;durP1;ratioP1;P1;durP2;ratioP2;P2;SDS_P1;SDS_P2;PMS_P1;PMS_P2;Temp;Humidity;BMP_temperature;BMP_pressure;BME280_temperature;BME280_humidity;BME280_pressure;Samples;Min_cycle;Max_cycle;Signal;HPM_P1;HPM_P2
2023/05/13 00:00:08;;;;;;;10.43;7.88;;;;;;;10.35;100.00;102277.97;4977929;28;20053;-74
2023/05/13 00:02:52;;;;;;;10.85;8.85;;;;;;;10.32;100.00;102270.09;4990894;28;20061;-74
2023/05/13 00:05:36;;;;;;;12.02;8.75;;;;;;;10.32;100.00;102275.41;4975354;28;20516;-73
2023/05/13 00:08:21;;;;;;;12.18;8.38;;;;;;;10.29;100.00;102276.34;4977399;28;20177;-73
2023/05/13 00:11:05;;;;;;;11.27;8.38;;;;;;;10.26;100.00;102276.41;4990824;28;20100;-73
2023/05/13 00:13:49;;;;;;;13.27;8.75;;;;;;;10.24;100.00;102267.63;4974284;28;20068;-74
2023/05/13 00:16:33;;;;;;;13.52;8.93;;;;;;;10.21;100.00;102280.03;4977730;28;20180;-74
2023/05/13 00:19:17;;;;;;;13.73;8.90;;;;;;;10.20;100.00;102279.19;4981355;28;21057;-73
2023/05/13 00:22:08;;;;;;;12.00;8.63;;;;;;;10.17;100.00;102277.47;4977931;28;20052;-73
2023/05/13 00:24:53;;;;;;;13.63;8.90;;;;;;;10.15;100.00;102267.81;4977294;28;20056;-73
2023/05/13 00:27:37;;;;;;;14.00;9.18;;;;;;;10.14;100.00;102269.56;4986431;28;21133;-73
2023/05/13 00:30:27;;;;;;;12.93;8.80;;;;;;;10.13;100.00;102259.91;4978292;28;20599;-73
2023/05/13 00:33:11;;;;;;;14.57;9.27;;;;;;;10.11;100.00;102266.13;4981152;28;20113;-73
2023/05/13 00:35:56;;;;;;;13.30;8.82;;;;;;;10.07;100.00;102265.31;4992996;28;20159;-73
2023/05/13 00:38:44;;;;;;;12.13;9.50;;;;;;;10.03;100.00;102261.88;4980650;28;22170;-73
2023/05/13 00:41:37;;;;;;;13.75;9.10;;;;;;;10.03;100.00;102258.38;4980384;28;20240;-74
2023/05/13 00:44:21;;;;;;;12.50;9.13;;;;;;;10.00;100.00;102259.28;4980576;28;20074;-73
2023/05/13 00:47:10;;;;;;;12.45;9.48;;;;;;;10.00;100.00;102258.41;4978209;28;20144;-73
2023/05/13 00:49:53;;;;;;;14.13;9.60;;;;;;;9.99;100.00;102257.56;4979322;28;20064;-73
2023/05/13 00:52:39;;;;;;;12.77;9.65;;;;;;;10.00;100.00;102258.41;4981111;28;20104;-73
2023/05/13 00:55:23;;;;;;;12.95;9.55;;;;;;;10.03;100.00;102263.66;4976652;28;20460;-74
2023/05/13 00:58:10;;;;;;;15.25;10.35;;;;;;;10.02;100.00;102265.41;4978541;28;20077;-73
2023/05/13 01:01:10;;;;;;;16.38;10.60;;;;;;;10.02;100.00;102264.56;4980866;28;20139;-73
2023/05/13 01:04:09;;;;;;;15.70;10.70;;;;;;;10.00;100.00;102261.06;4978433;28;20048;-73
2023/05/13 01:07:03;;;;;;;12.70;9.90;;;;;;;9.99;100.00;102261.97;4981174;28;20052;-73
2023/05/13 01:10:01;;;;;;;16.42;10.73;;;;;;;9.98;100.00;102254.94;4977733;28;20080;-73
2023/05/13 01:12:45;;;;;;;15.05;10.25;;;;;;;9.98;100.00;102254.94;4976316;28;20138;-73
2023/05/13 01:15:33;;;;;;;13.73;10.57;;;;;;;9.96;100.00;102256.75;4979446;28;20188;-73
2023/05/13 01:18:19;;;;;;;16.23;10.65;;;;;;;9.95;100.00;102252.34;4981920;28;21507;-73
2023/05/13 01:21:05;;;;;;;15.93;10.43;;;;;;;9.91;100.00;102256.81;4977781;28;20068;-73
2023/05/13 01:23:49;;;;;;;17.42;11.50;;;;;;;9.89;100.00;102256.00;4994667;28;20049;-73
2023/05/13 01:26:33;;;;;;;15.40;10.23;;;;;;;9.85;100.00;102252.53;4980802;28;21030;-73
2023/05/13 01:29:17;;;;;;;14.27;10.45;;;;;;;9.82;100.00;102252.59;4977341;28;20418;-74
2023/05/13 01:32:01;;;;;;;15.25;10.48;;;;;;;9.82;100.00;102254.38;4981748;28;20082;-73
2023/05/13 01:34:45;;;;;;;15.57;10.32;;;;;;;9.81;100.00;102256.13;4995139;28;20053;-74
2023/05/13 01:37:30;;;;;;;14.35;10.55;;;;;;;9.81;100.00;102256.13;4977825;28;20068;-73
2023/05/13 01:40:15;;;;;;;16.50;10.98;;;;;;;9.82;100.00;102247.31;4980581;28;20108;-74
2023/05/13 01:42:59;;;;;;;13.68;10.32;;;;;;;9.85;100.00;102257.81;4993415;28;20081;-74
2023/05/13 01:45:50;;;;;;;14.45;10.48;;;;;;;9.87;100.00;102258.66;4978166;28;20143;-74
2023/05/13 01:48:35;;;;;;;18.48;10.73;;;;;;;9.87;100.00;102263.09;4982180;28;20109;-74
2023/05/13 01:51:19;;;;;;;13.40;9.95;;;;;;;9.83;100.00;102261.41;4979700;28;20045;-74
2023/05/13 01:54:11;;;;;;;15.90;10.65;;;;;;;9.82;100.00;102259.66;4980555;28;20057;-74
2023/05/13 01:56:56;;;;;;;15.05;10.23;;;;;;;9.81;100.00;102268.50;4979823;28;20064;-74
2023/05/13 01:59:40;;;;;;;11.90;9.32;;;;;;;9.80;100.00;102266.75;4981044;28;20161;-74
2023/05/13 02:02:24;;;;;;;13.20;10.07;;;;;;;9.77;100.00;102275.63;4978714;28;20157;-73
2023/05/13 02:05:08;;;;;;;17.27;10.60;;;;;;;9.73;100.00;102274.81;4979431;28;20101;-73
2023/05/13 02:07:52;;;;;;;13.65;9.40;;;;;;;9.71;100.00;102273.97;4978439;28;20108;-74
2023/05/13 02:10:36;;;;;;;14.05;9.77;;;;;;;9.70;100.00;102263.41;4980588;28;20111;-73
2023/05/13 02:13:21;;;;;;;21.45;10.57;;;;;;;9.71;100.00;102270.44;4978693;28;20115;-73
2023/05/13 02:16:05;;;;;;;14.52;10.50;;;;;;;9.70;100.00;102266.06;4980533;28;20066;-73
2023/05/13 02:18:50;;;;;;;14.38;9.60;;;;;;;9.68;100.00;102274.00;4979475;28;20133;-74
2023/05/13 02:21:34;;;;;;;16.83;9.90;;;;;;;9.66;100.00;102273.19;4976752;28;20421;-74
2023/05/13 02:24:21;;;;;;;13.27;9.98;;;;;;;9.63;100.00;102270.59;4979646;28;20039;-74
2023/05/13 02:27:06;;;;;;;17.55;10.30;;;;;;;9.63;100.00;102275.88;4979193;28;20119;-74
2023/05/13 02:29:50;;;;;;;14.38;9.77;;;;;;;9.61;100.00;102278.56;4975618;28;20632;-73
2023/05/13 02:32:34;;;;;;;16.85;10.50;;;;;;;9.60;100.00;102270.66;4978046;28;20045;-73
2023/05/13 02:35:18;;;;;;;13.30;9.70;;;;;;;9.56;100.00;102272.47;4992694;28;20095;-73
2023/05/13 02:38:05;;;;;;;13.30;10.25;;;;;;;9.54;100.00;102276.94;4978171;28;20048;-73
2023/05/13 02:40:50;;;;;;;16.35;10.48;;;;;;;9.53;100.00;102269.88;4981104;28;21323;-74
2023/05/13 02:43:34;;;;;;;12.20;9.38;;;;;;;9.51;100.00;102274.34;4980781;28;20061;-73
2023/05/13 02:46:18;;;;;;;13.85;10.13;;;;;;;9.47;100.00;102268.22;4975426;28;20076;-73
2023/05/13 02:49:02;;;;;;;13.85;9.63;;;;;;;9.47;100.00;102269.97;4982261;28;20054;-73
2023/05/13 02:51:46;;;;;;;12.77;9.65;;;;;;;9.44;100.00;102268.28;4979711;28;20077;-73
2023/05/13 02:54:30;;;;;;;15.73;9.43;;;;;;;9.43;100.00;102265.66;4977965;28;20053;-74
2023/05/13 02:57:15;;;;;;;15.23;10.25;;;;;;;9.43;100.00;102257.75;4977120;28;20886;-74
2023/05/13 03:00:00;;;;;;;16.42;10.32;;;;;;;9.43;100.00;102265.66;4967500;28;20076;-74
2023/05/13 03:02:43;;;;;;;14.57;9.93;;;;;;;9.41;100.00;102262.19;4975279;28;20038;-74
2023/05/13 03:05:27;;;;;;;14.82;11.07;;;;;;;9.39;100.00;102262.22;4979700;28;20050;-74
2023/05/13 03:08:11;;;;;;;14.10;9.85;;;;;;;9.36;100.00;102263.13;4977867;28;20077;-74
2023/05/13 03:10:57;;;;;;;17.08;10.73;;;;;;;9.33;100.00;102263.16;4976571;28;20073;-74
2023/05/13 03:13:41;;;;;;;13.95;10.02;;;;;;;9.30;100.00;102257.94;4978454;28;20111;-74
2023/05/13 03:16:25;;;;;;;16.92;10.50;;;;;;;9.32;100.00;102258.78;4978331;28;20057;-74
2023/05/13 03:19:10;;;;;;;15.98;11.02;;;;;;;9.29;100.00;102261.50;4989432;28;20108;-74
2023/05/13 03:21:54;;;;;;;14.70;10.60;;;;;;;9.29;100.00;102261.50;4963747;28;20465;-74
2023/05/13 03:24:38;;;;;;;15.98;11.35;;;;;;;9.28;100.00;102265.03;4977813;28;20124;-74
2023/05/13 03:27:22;;;;;;;15.98;11.75;;;;;;;9.28;100.00;102265.03;4971797;28;20450;-73
2023/05/13 03:30:07;;;;;;;17.75;11.68;;;;;;;9.27;100.00;102263.31;4978901;28;20123;-74
2023/05/13 03:32:51;;;;;;;16.88;11.27;;;;;;;9.27;100.00;102265.94;4979063;28;20662;-74
2023/05/13 03:35:35;;;;;;;13.93;11.20;;;;;;;9.28;100.00;102274.72;4976238;28;20481;-74
2023/05/13 03:38:20;;;;;;;15.02;10.18;;;;;;;9.29;100.00;102272.06;4977110;28;20046;-74
2023/05/13 03:41:04;;;;;;;17.02;10.27;;;;;;;9.28;100.00;102270.34;4990424;28;20180;-74
2023/05/13 03:43:48;;;;;;;14.15;10.48;;;;;;;9.30;100.00;102271.16;4988765;28;20130;-74
2023/05/13 03:46:32;;;;;;;13.07;9.82;;;;;;;9.32;100.00;102266.72;4977819;28;20105;-74
2023/05/13 03:49:17;;;;;;;14.60;9.20;;;;;;;9.34;100.00;102266.69;4991180;28;20888;-74
2023/05/13 03:52:08;;;;;;;14.80;9.45;;;;;;;9.36;100.00;102270.19;4975393;28;20392;-74
2023/05/13 03:54:53;;;;;;;16.25;10.63;;;;;;;9.36;100.00;102273.72;4977648;28;20061;-74
2023/05/13 03:57:37;;;;;;;15.70;10.18;;;;;;;9.36;100.00;102275.47;4974273;28;20045;-74
2023/05/13 04:00:21;;;;;;;14.23;10.82;;;;;;;9.35;100.00;102277.25;4971602;28;20073;-74
2023/05/13 04:03:09;;;;;;;16.73;11.55;;;;;;;9.35;100.00;102265.78;4976702;28;20041;-73
2023/05/13 04:05:53;;;;;;;16.98;11.63;;;;;;;9.37;100.00;102277.22;4978695;28;20045;-74
2023/05/13 04:08:37;;;;;;;17.88;11.68;;;;;;;9.38;100.00;102279.84;4974166;28;20421;-74
2023/05/13 04:11:21;;;;;;;18.35;12.15;;;;;;;9.40;100.00;102273.63;4976534;28;20212;-74
2023/05/13 04:14:06;;;;;;;17.92;13.02;;;;;;;9.43;100.00;102273.59;4990058;28;20100;-74
2023/05/13 04:16:50;;;;;;;17.48;11.55;;;;;;;9.45;100.00;102283.25;4975368;28;20156;-73
2023/05/13 04:19:34;;;;;;;16.17;11.60;;;;;;;9.47;100.00;102276.16;4977708;28;20100;-74
2023/05/13 04:22:18;;;;;;;19.42;12.77;;;;;;;9.50;100.00;102264.66;4978690;28;20405;-74
2023/05/13 04:25:03;;;;;;;17.38;11.75;;;;;;;9.53;100.00;102284.88;4973572;28;20068;-74
2023/05/13 04:27:47;;;;;;;19.23;12.40;;;;;;;9.54;100.00;102287.50;4977091;28;20812;-73
2023/05/13 04:30:31;;;;;;;18.50;12.05;;;;;;;9.58;100.00;102273.31;4975432;28;20666;-74
2023/05/13 04:33:16;;;;;;;22.30;13.13;;;;;;;9.61;100.00;102273.28;4973156;28;20053;-74
2023/05/13 04:36:00;;;;;;;18.70;11.95;;;;;;;9.66;100.00;102278.47;4975141;28;20682;-74
2023/05/13 04:38:44;;;;;;;20.35;13.07;;;;;;;9.65;100.00;102277.59;4976629;28;20163;-74
2023/05/13 04:41:28;;;;;;;18.35;12.15;;;;;;;9.67;100.00;102272.28;4973826;28;20489;-73
2023/05/13 04:44:12;;;;;;;18.50;11.32;;;;;;;9.70;100.00;102277.50;4977519;28;20545;-74
2023/05/13 04:46:56;;;;;;;17.52;12.35;;;;;;;9.75;100.00;102277.44;4975485;28;20165;-74
2023/05/13 04:49:41;;;;;;;15.05;11.30;;;;;;;9.81;100.00;102282.56;4979608;28;20165;-74
2023/05/13 04:52:25;;;;;;;15.25;10.55;;;;;;;9.84;100.00;102281.66;4977899;28;20125;-74
2023/05/13 04:55:12;;;;;;;15.40;10.20;;;;;;;9.86;100.00;102282.50;4990549;28;20156;-74
2023/05/13 04:57:56;;;;;;;17.23;10.55;;;;;;;9.92;100.00;102287.69;4978094;28;20133;-74
2023/05/13 05:00:40;;;;;;;15.77;10.57;;;;;;;9.97;100.00;102285.81;4970549;28;20092;-74
2023/05/13 05:03:25;;;;;;;16.48;9.88;;;;;;;10.06;100.00;102290.03;4977776;28;20123;-74
2023/05/13 05:06:11;;;;;;;13.85;9.52;;;;;;;10.15;100.00;102294.28;4976761;28;20100;-73
2023/05/13 05:08:55;;;;;;;15.45;10.13;;;;;;;10.22;100.00;102297.66;4974107;28;20076;-74
2023/05/13 05:11:39;;;;;;;15.23;9.18;;;;;;;10.27;100.00;102306.38;4975772;28;20092;-73
2023/05/13 05:14:24;;;;;;;10.82;8.77;;;;;;;10.30;100.00;102304.53;4970100;28;20096;-74
2023/05/13 05:17:08;;;;;;;10.48;8.27;;;;;;;10.38;100.00;102304.41;4978427;28;20148;-73
2023/05/13 05:19:52;;;;;;;11.48;8.82;;;;;;;10.47;100.00;102300.72;4982962;28;20056;-74
2023/05/13 05:22:37;;;;;;;12.95;9.23;;;;;;;10.57;100.00;102301.38;4981844;28;20053;-73
2023/05/13 05:25:23;;;;;;;9.55;7.93;;;;;;;10.70;100.00;102301.97;4978293;28;20052;-74
2023/05/13 05:28:08;;;;;;;11.13;8.07;;;;;;;10.80;100.00;102302.63;4979371;28;20756;-74
2023/05/13 05:30:52;;;;;;;9.38;7.68;;;;;;;10.89;100.00;102305.06;4978507;28;20052;-74
2023/05/13 05:33:36;;;;;;;12.32;7.57;;;;;;;11.02;100.00;102291.53;4976269;28;20061;-74
2023/05/13 05:36:21;;;;;;;9.90;7.72;;;;;;;11.22;100.00;102302.50;4980580;28;20073;-74
2023/05/13 05:39:05;;;;;;;9.98;7.05;;;;;;;11.40;100.00;102295.00;4978190;28;20052;-74
2023/05/13 05:41:49;;;;;;;8.80;7.10;;;;;;;11.53;100.00;102296.44;4977563;28;20069;-74
2023/05/13 05:44:33;;;;;;;12.00;7.55;;;;;;;11.67;100.00;102293.38;4979420;28;20559;-71
2023/05/13 05:47:17;;;;;;;10.63;7.10;;;;;;;11.89;100.00;102295.47;4978740;28;20402;-71
2023/05/13 05:50:02;;;;;;;10.88;7.78;;;;;;;12.12;100.00;102303.72;4977439;28;20057;-72
2023/05/13 05:52:46;;;;;;;11.98;6.75;;;;;;;12.30;100.00;102305.84;4977641;28;20512;-71
2023/05/13 05:55:33;;;;;;;8.48;6.78;;;;;;;12.43;100.00;102297.50;4981897;28;21310;-72
2023/05/13 05:58:17;;;;;;;10.70;6.85;;;;;;;12.60;100.00;102303.16;4978136;28;20155;-72
2023/05/13 06:01:01;;;;;;;7.88;6.15;;;;;;;12.79;100.00;102299.09;4979952;28;20064;-72
2023/05/13 06:03:45;;;;;;;8.68;6.15;;;;;;;12.97;100.00;102295.81;4981499;28;20189;-73
2023/05/13 06:06:29;;;;;;;8.18;6.15;;;;;;;13.15;100.00;102310.31;4976237;28;20048;-73
2023/05/13 06:09:14;;;;;;;9.80;5.32;;;;;;;13.29;100.00;102306.34;4980625;28;20406;-73
2023/05/13 06:11:58;;;;;;;6.70;5.50;;;;;;;13.40;100.00;102309.47;4955791;28;20069;-73
2023/05/13 06:14:43;;;;;;;7.72;5.55;;;;;;;13.56;100.00;102322.28;4978765;28;20052;-73
2023/05/13 06:17:27;;;;;;;5.65;5.03;;;;;;;13.71;100.00;102316.44;4980619;28;20111;-73
2023/05/13 06:20:11;;;;;;;7.80;4.95;;;;;;;13.92;100.00;102316.59;4980810;28;20072;-73
2023/05/13 06:22:55;;;;;;;8.10;5.30;;;;;;;14.03;100.00;102310.00;4977588;28;20128;-73
2023/05/13 06:25:40;;;;;;;10.48;5.35;;;;;;;14.08;100.00;102313.38;4981695;28;20054;-73
2023/05/13 06:28:24;;;;;;;8.48;5.18;;;;;;;14.21;100.00;102316.44;4978744;28;20077;-73
2023/05/13 06:31:09;;;;;;;5.85;5.22;;;;;;;14.32;100.00;102308.06;4978110;28;20052;-73
2023/05/13 06:33:53;;;;;;;6.63;4.95;;;;;;;14.46;100.00;102312.84;4978638;28;20046;-73
2023/05/13 06:36:37;;;;;;;7.25;5.10;;;;;;;14.57;100.00;102309.75;4979817;28;20968;-73
2023/05/13 06:39:21;;;;;;;5.10;4.50;;;;;;;14.72;100.00;102317.19;4976411;28;20144;-73
2023/05/13 06:42:05;;;;;;;8.63;5.03;;;;;;;14.90;100.00;102315.59;4977570;28;20041;-73
2023/05/13 06:44:50;;;;;;;6.78;4.75;;;;;;;15.01;100.00;102312.50;4978139;28;20100;-73
2023/05/13 06:47:34;;;;;;;6.78;4.70;;;;;;;15.09;100.00;102316.63;4976553;28;21028;-73
2023/05/13 06:50:18;;;;;;;7.57;5.10;;;;;;;15.19;100.00;102316.19;4977677;28;20112;-73
2023/05/13 06:53:03;;;;;;;7.75;4.60;;;;;;;15.33;100.00;102312.97;4979796;28;20049;-73
2023/05/13 06:55:55;;;;;;;6.90;4.72;;;;;;;15.41;100.00;102315.28;4961446;28;20559;-72
2023/05/13 06:58:39;;;;;;;6.85;4.63;;;;;;;15.50;100.00;102315.81;4977905;28;20460;-75
2023/05/13 07:01:23;;;;;;;5.47;4.05;;;;;;;15.64;100.00;102309.88;4977847;28;20096;-75
2023/05/13 07:04:07;;;;;;;6.97;4.63;;;;;;;15.75;100.00;102318.31;4975713;28;20615;-75
2023/05/13 07:06:53;;;;;;;6.30;4.25;;;;;;;15.82;100.00;102318.88;4979336;28;20064;-75
2023/05/13 07:09:37;;;;;;;6.57;3.95;;;;;;;15.87;100.00;102317.72;4979238;28;20049;-75
2023/05/13 07:12:21;;;;;;;5.53;4.32;;;;;;;15.91;100.00;102314.94;4987225;28;20078;-75
2023/05/13 07:15:06;;;;;;;6.80;4.50;;;;;;;15.93;100.00;102318.44;4991298;28;21574;-76
2023/05/13 07:17:50;;;;;;;5.50;4.25;;;;;;;15.98;100.00;102319.09;4980425;28;20128;-75
2023/05/13 07:20:35;;;;;;;5.82;4.20;;;;;;;16.05;100.00;102325.03;4977184;28;20401;-76
2023/05/13 07:23:20;;;;;;;5.70;4.57;;;;;;;16.16;100.00;102322.75;4979239;28;20548;-76
2023/05/13 07:26:04;;;;;;;5.05;3.97;;;;;;;16.24;100.00;102315.22;4978303;28;20053;-75
2023/05/13 07:28:48;;;;;;;6.45;4.18;;;;;;;16.36;100.00;102320.97;4978156;28;20049;-76
2023/05/13 07:31:33;;;;;;;4.47;3.58;;;;;;;16.41;100.00;102311.78;4976382;28;20048;-75
2023/05/13 07:34:17;;;;;;;5.65;4.20;;;;;;;16.45;100.00;102311.66;4976937;28;21019;-76
2023/05/13 07:37:03;;;;;;;4.97;3.80;;;;;;;16.51;100.00;102320.22;4977936;28;20070;-75
2023/05/13 07:39:48;;;;;;;5.95;4.05;;;;;;;16.59;100.00;102319.88;4975424;28;20136;-76
2023/05/13 07:42:32;;;;;;;4.82;3.80;;;;;;;16.64;98.79;102316.97;4963387;28;20878;-77
2023/05/13 07:45:16;;;;;;;5.00;3.75;;;;;;;16.65;100.00;102318.69;4968726;28;20112;-73
2023/05/13 07:48:00;;;;;;;6.03;4.00;;;;;;;16.74;100.00;102317.41;4975797;28;20053;-75
2023/05/13 07:50:45;;;;;;;5.80;3.97;;;;;;;16.79;100.00;102310.88;4977738;28;20100;-76
2023/05/13 07:53:30;;;;;;;5.60;3.92;;;;;;;16.92;100.00;102321.84;4977134;28;20112;-75
2023/05/13 07:56:14;;;;;;;6.47;3.92;;;;;;;16.97;98.59;102319.84;4974842;28;20096;-76
2023/05/13 07:58:58;;;;;;;7.05;4.40;;;;;;;17.04;100.00;102316.84;4975470;28;20599;-75
2023/05/13 08:01:42;;;;;;;6.55;4.30;;;;;;;17.11;97.42;102323.66;4976832;28;20180;-72
2023/05/13 08:04:28;;;;;;;5.47;4.15;;;;;;;17.09;91.37;102313.03;4974759;28;20524;-75
2023/05/13 08:07:12;;;;;;;5.82;3.70;;;;;;;17.17;96.26;102309.94;4976953;28;20430;-74
2023/05/13 08:09:56;;;;;;;5.43;3.70;;;;;;;17.26;92.64;102315.81;4975433;28;20147;-75
2023/05/13 08:12:41;;;;;;;4.50;3.58;;;;;;;17.28;92.73;102313.91;4971753;28;20096;-75
2023/05/13 08:15:25;;;;;;;4.25;3.33;;;;;;;17.34;93.34;102317.13;4977478;28;20053;-75
2023/05/13 08:18:10;;;;;;;4.88;4.20;;;;;;;17.35;94.11;102318.88;4977069;28;20076;-74
2023/05/13 08:20:54;;;;;;;5.90;3.60;;;;;;;17.44;95.11;102316.69;4975521;28;20143;-76
2023/05/13 08:23:38;;;;;;;6.90;4.13;;;;;;;17.56;93.63;102320.53;4976130;28;20053;-77
2023/05/13 08:26:23;;;;;;;5.95;3.90;;;;;;;17.71;94.70;102318.88;4975503;28;20104;-74
2023/05/13 08:29:11;;;;;;;5.32;3.88;;;;;;;17.76;93.22;102319.50;4986205;28;20057;-75
2023/05/13 08:31:58;;;;;;;8.18;4.47;;;;;;;17.85;93.29;102326.16;4974809;28;20081;-83
2023/05/13 08:34:42;;;;;;;5.18;3.88;;;;;;;17.97;93.94;102319.28;4963430;28;20108;-85
2023/05/13 08:37:26;;;;;;;5.78;3.90;;;;;;;17.96;92.39;102317.53;4974899;28;20109;-85
2023/05/13 08:40:10;;;;;;;4.53;3.70;;;;;;;18.01;93.16;102315.50;4974179;28;20109;-83
2023/05/13 08:42:56;;;;;;;6.07;3.85;;;;;;;18.10;94.45;102314.16;4978513;28;20069;-84
2023/05/13 08:45:41;;;;;;;5.68;3.78;;;;;;;18.22;94.26;102329.56;4973608;28;20687;-83
2023/05/13 08:48:26;;;;;;;6.25;3.75;;;;;;;18.29;92.66;102325.63;4971119;28;20588;-88
2023/05/13 08:51:11;;;;;;;5.18;3.90;;;;;;;18.30;92.54;102316.63;4980583;28;20064;-82
2023/05/13 08:53:55;;;;;;;4.80;3.78;;;;;;;18.45;95.33;102327.44;4978625;28;20115;-81
2023/05/13 08:56:39;;;;;;;5.28;4.10;;;;;;;18.54;92.24;102323.38;4979865;28;20840;-81
2023/05/13 08:59:24;;;;;;;7.53;4.07;;;;;;;18.56;93.90;102322.34;4983946;28;20057;-82
2023/05/13 09:02:10;;;;;;;4.63;3.90;;;;;;;18.71;95.44;102322.44;4980330;28;20473;-80
2023/05/13 09:04:57;;;;;;;3.95;3.30;;;;;;;18.83;94.34;102318.16;4980742;28;20056;-83
2023/05/13 09:07:50;;;;;;;5.25;4.03;;;;;;;18.84;94.03;102323.47;4978466;28;20524;-80
2023/05/13 09:10:36;;;;;;;4.07;3.30;;;;;;;18.70;89.94;102321.56;4979961;28;20107;-82
2023/05/13 09:13:20;;;;;;;4.40;4.00;;;;;;;18.58;89.81;102324.94;4964901;28;20053;-82
2023/05/13 09:16:05;;;;;;;4.22;3.83;;;;;;;18.61;92.77;102318.56;4975780;28;20045;-84
2023/05/13 09:19:04;;;;;;;4.32;3.80;;;;;;;18.75;91.45;102320.44;4980739;28;20185;-84
2023/05/13 09:21:48;;;;;;;6.90;3.85;;;;;;;18.84;92.86;102327.94;4978496;28;20115;-82
2023/05/13 09:24:32;;;;;;;4.20;3.63;;;;;;;18.92;89.59;102322.16;4976595;28;21011;-82
2023/05/13 09:27:20;;;;;;;5.68;3.47;;;;;;;18.84;89.20;102322.56;4977408;28;20108;-84
2023/05/13 09:30:05;;;;;;;5.25;3.53;;;;;;;18.78;87.07;102320.28;4968484;28;20096;-86
2023/05/13 09:33:15;;;;;;;5.47;4.47;;;;;;;18.78;82.64;102321.13;4973457;28;21919;-79
2023/05/13 09:36:02;;;;;;;4.95;4.15;;;;;;;18.76;81.20;102320.34;4982419;28;20057;-75
2023/05/13 09:38:46;;;;;;;5.20;4.15;;;;;;;18.76;87.51;102327.53;4977452;28;20900;-74
2023/05/13 09:41:31;;;;;;;7.53;3.90;;;;;;;18.81;88.01;102323.66;4976769;28;20073;-74
2023/05/13 09:44:15;;;;;;;7.22;4.18;;;;;;;18.95;87.85;102324.69;4978910;28;20044;-75
2023/05/13 09:47:01;;;;;;;4.78;3.55;;;;;;;19.04;87.52;102320.59;4979940;28;20045;-74
2023/05/13 09:49:54;;;;;;;5.63;4.47;;;;;;;18.99;84.65;102318.16;4981959;28;20189;-74
2023/05/13 09:52:38;;;;;;;;;;;;;;;19.07;83.83;102328.50;4980513;28;20468;-73
2023/05/13 09:55:22;;;;;;;6.20;4.03;;;;;;;19.07;80.29;102321.28;4980042;28;20019;-75
2023/05/13 09:58:11;;;;;;;4.65;3.97;;;;;;;19.03;85.15;102318.88;4987048;28;20084;-75
2023/05/13 10:00:56;;;;;;;8.27;4.10;;;;;;;19.05;85.32;102320.53;4977309;28;20100;-74
2023/05/13 10:03:41;;;;;;;9.25;5.15;;;;;;;18.97;86.48;102315.56;4978077;28;20053;-74
2023/05/13 10:06:29;;;;;;;6.07;4.53;;;;;;;18.94;81.35;102321.13;4974630;28;20116;-75
2023/05/13 10:09:14;;;;;;;6.55;4.22;;;;;;;18.84;85.49;102320.78;4980150;28;20049;-75
2023/05/13 10:11:59;;;;;;;5.68;4.45;;;;;;;18.76;84.43;102315.00;4976769;28;20041;-74
2023/05/13 10:14:50;;;;;;;5.45;4.80;;;;;;;18.67;83.25;102315.50;4976047;28;20813;-76
2023/05/13 10:17:37;;;;;;;6.10;4.33;;;;;;;18.51;84.84;102319.06;4982126;28;20053;-74
2023/05/13 10:20:22;;;;;;;5.95;4.25;;;;;;;18.55;85.92;102322.44;4990537;28;20541;-74
2023/05/13 10:23:06;;;;;;;6.35;4.22;;;;;;;18.58;84.42;102312.38;4989347;28;20089;-75
2023/05/13 10:25:54;;;;;;;4.75;4.07;;;;;;;18.51;82.36;102308.31;4963874;28;22169;-75
2023/05/13 10:28:38;;;;;;;7.38;4.70;;;;;;;18.44;83.12;102315.88;4977471;28;20658;-73
2023/05/13 10:31:23;;;;;;;6.75;4.65;;;;;;;18.38;84.09;102312.63;4977984;28;20045;-75
2023/05/13 10:34:08;;;;;;;5.05;4.15;;;;;;;18.39;86.79;102307.19;4978205;28;21580;-75
2023/05/13 10:37:00;;;;;;;6.05;4.40;;;;;;;18.52;86.75;102304.69;4979128;28;20052;-76
2023/05/13 10:40:06;;;;;;;6.82;5.22;;;;;;;18.63;87.03;102316.63;4988933;28;20053;-75
2023/05/13 10:42:53;;;;;;;8.77;4.63;;;;;;;18.72;88.06;102305.38;4978395;28;20064;-75
2023/05/13 10:45:38;;;;;;;6.63;4.90;;;;;;;18.72;84.58;102305.38;4978695;28;20052;-75
2023/05/13 10:48:22;;;;;;;8.73;4.97;;;;;;;18.64;86.68;102302.28;4976071;28;20045;-75
2023/05/13 10:51:07;;;;;;;7.28;5.00;;;;;;;18.62;86.62;102293.47;4980238;28;20065;-75
2023/05/13 10:53:53;;;;;;;4.82;4.32;;;;;;;18.56;86.21;102300.91;4978104;28;20512;-76
2023/05/13 10:56:37;;;;;;;5.22;4.20;;;;;;;18.58;84.67;102290.09;4989472;28;20143;-75
2023/05/13 10:59:21;;;;;;;5.38;4.60;;;;;;;18.58;85.88;102290.94;4988267;28;20060;-75
2023/05/13 11:02:25;;;;;;;5.43;4.22;;;;;;;18.57;82.08;102291.00;4976462;28;20037;-75
2023/05/13 11:05:18;;;;;;;4.78;4.00;;;;;;;18.59;81.98;102286.44;4979193;28;20575;-76
2023/05/13 11:08:02;;;;;;;;;;;;;;;18.46;79.86;102291.63;4979166;28;20048;-74
2023/05/13 11:10:53;;;;;;;5.75;4.72;;;;;;;18.41;82.78;102285.69;4977468;28;19939;-75
2023/05/13 11:13:38;;;;;;;5.85;4.43;;;;;;;18.42;83.79;102290.09;4978262;28;20053;-76
2023/05/13 11:16:23;;;;;;;6.00;4.50;;;;;;;18.41;83.87;102285.69;4980016;28;20402;-74
2023/05/13 11:19:22;;;;;;;7.07;4.72;;;;;;;18.51;83.10;102286.88;4979084;28;20049;-74
2023/05/13 11:22:12;;;;;;;5.70;4.68;;;;;;;18.55;82.95;102283.09;4977278;28;20900;-75
2023/05/13 11:25:08;;;;;;;5.38;4.40;;;;;;;18.56;82.18;102284.81;4978819;28;20717;-75
2023/05/13 11:27:52;;;;;;;5.95;4.32;;;;;;;18.45;81.00;102288.09;4977511;28;20142;-74
2023/05/13 11:30:37;;;;;;;7.05;4.78;;;;;;;18.39;81.54;102277.72;4977869;28;20053;-75
2023/05/13 11:33:20;;;;;;;6.65;4.88;;;;;;;18.47;82.62;102274.63;4978225;28;20100;-74
2023/05/13 11:36:05;;;;;;;5.97;4.40;;;;;;;18.55;83.42;102271.47;4980006;28;20057;-75
2023/05/13 11:38:49;;;;;;;6.45;4.63;;;;;;;18.58;82.84;102280.22;4975209;28;20119;-74
2023/05/13 11:41:35;;;;;;;6.10;4.85;;;;;;;18.57;82.43;102266.88;4979054;28;20100;-75
2023/05/13 11:44:22;;;;;;;5.90;4.00;;;;;;;18.58;78.35;102277.53;4977641;28;20938;-75
2023/05/13 11:47:08;;;;;;;8.68;4.60;;;;;;;18.58;80.93;102277.53;4978063;28;20139;-76
2023/05/13 11:49:53;;;;;;;6.53;4.53;;;;;;;18.59;82.28;102270.38;4979385;28;20143;-75
2023/05/13 11:52:36;;;;;;;4.90;4.40;;;;;;;18.59;82.75;102273.03;4977389;28;20052;-75
2023/05/13 11:55:26;;;;;;;5.88;4.75;;;;;;;18.66;83.30;102270.84;4971078;28;20733;-75
2023/05/13 11:58:12;;;;;;;6.82;4.20;;;;;;;18.75;83.94;102262.31;4979138;28;20049;-76
2023/05/13 12:00:57;;;;;;;6.28;4.28;;;;;;;18.79;83.39;102266.53;4978996;28;20731;-75
2023/05/13 12:03:42;;;;;;;5.30;3.72;;;;;;;18.78;81.04;102269.31;4976318;28;20121;-74
2023/05/13 12:06:26;;;;;;;4.53;3.88;;;;;;;18.76;80.87;102268.50;4977714;28;20053;-76
2023/05/13 12:09:13;;;;;;;7.25;4.15;;;;;;;18.78;82.16;102263.94;4976888;28;20147;-75
2023/05/13 12:11:57;;;;;;;5.07;4.18;;;;;;;18.82;82.87;102266.34;4973503;28;20109;-75
2023/05/13 12:14:44;;;;;;;6.85;4.70;;;;;;;18.85;82.92;102260.78;4992102;28;20065;-75
2023/05/13 12:17:30;;;;;;;4.53;4.13;;;;;;;18.91;82.32;102256.88;4977708;28;20183;-75
2023/05/13 12:20:18;;;;;;;7.25;4.88;;;;;;;18.95;81.78;102257.59;4977160;28;20749;-75
2023/05/13 12:23:03;;;;;;;6.88;4.32;;;;;;;18.92;82.81;102250.59;4980734;28;20065;-76
2023/05/13 12:25:49;;;;;;;4.88;4.03;;;;;;;19.02;83.64;102250.94;4982795;28;20155;-76
2023/05/13 12:28:34;;;;;;;5.45;4.05;;;;;;;19.07;82.56;102247.97;4981186;28;20169;-76
2023/05/13 12:31:18;;;;;;;6.20;3.80;;;;;;;19.09;82.33;102254.97;4981237;28;20062;-76
2023/05/13 12:34:09;;;;;;;6.38;3.90;;;;;;;19.03;81.23;102249.97;4982693;28;20134;-76
2023/05/13 12:36:53;;;;;;;4.53;3.45;;;;;;;19.05;80.60;102253.44;4990879;28;20809;-75
2023/05/13 12:39:40;;;;;;;6.03;3.60;;;;;;;19.19;81.80;102247.25;4982130;28;20192;-76